createdAt,value
2019-04-02T00:00:10.620Z,6.57
2019-04-02T00:01:10.577Z,6.57
2019-04-02T00:02:11.776Z,6.54
2019-04-02T00:03:10.636Z,6.56
2019-04-02T00:04:10.563Z,6.56
2019-04-02T00:05:10.535Z,6.56
2019-04-02T00:06:10.614Z,6.58
2019-04-02T00:07:10.576Z,6.56
2019-04-02T00:08:10.563Z,6.57
2019-04-02T00:09:10.575Z,6.57
2019-04-02T00:10:10.535Z,6.57
2019-04-02T00:11:10.568Z,6.6
2019-04-02T00:12:10.540Z,6.57
2019-04-02T00:13:10.573Z,6.58
2019-04-02T00:14:10.566Z,6.56
2019-04-02T00:15:10.535Z,6.57
2019-04-02T00:16:12.852Z,6.55
2019-04-02T00:17:10.903Z,6.55
2019-04-02T00:18:10.629Z,6.56
2019-04-02T00:19:10.557Z,6.57
2019-04-02T00:20:10.544Z,6.56
2019-04-02T00:21:10.540Z,6.56
2019-04-02T00:22:10.548Z,6.55
2019-04-02T00:23:10.635Z,6.56
2019-04-02T00:24:10.625Z,6.56
2019-04-02T00:25:10.571Z,6.55
2019-04-02T00:26:10.583Z,6.55
2019-04-02T00:27:10.566Z,6.56
2019-04-02T00:28:10.544Z,6.55
2019-04-02T00:29:10.853Z,6.57
2019-04-02T00:30:10.605Z,6.55
2019-04-02T00:31:13.984Z,6.57
2019-04-02T00:32:12.081Z,6.56
2019-04-02T00:33:10.646Z,6.55
2019-04-02T00:34:10.769Z,6.56
2019-04-02T00:35:10.622Z,6.53
2019-04-02T00:36:10.537Z,6.56
2019-04-02T00:37:10.522Z,6.56
2019-04-02T00:38:10.521Z,6.54
2019-04-02T00:39:10.579Z,6.56
2019-04-02T00:40:10.546Z,6.54
2019-04-02T00:41:10.503Z,6.53
2019-04-02T00:42:11.567Z,6.52
2019-04-02T00:43:10.539Z,6.54
2019-04-02T00:44:10.545Z,6.54
2019-04-02T00:45:10.511Z,6.54
2019-04-02T00:46:10.489Z,6.52
2019-04-02T00:47:10.495Z,6.53
2019-04-02T00:48:10.506Z,6.51
2019-04-02T00:49:10.529Z,6.52
2019-04-02T00:50:13.152Z,6.52
2019-04-02T00:51:10.525Z,6.51
2019-04-02T00:52:10.488Z,6.52
2019-04-02T00:53:10.575Z,6.52
2019-04-02T00:54:10.505Z,6.51
2019-04-02T00:55:10.544Z,6.51
2019-04-02T00:56:10.600Z,6.53
2019-04-02T00:57:10.469Z,6.5
2019-04-02T00:58:10.482Z,6.5
2019-04-02T00:59:10.504Z,6.5
2019-04-02T01:00:10.532Z,6.5
2019-04-02T01:01:10.511Z,6.52
2019-04-02T01:02:10.489Z,6.49
2019-04-02T01:03:13.025Z,6.5
2019-04-02T01:04:10.922Z,6.5
2019-04-02T01:05:10.509Z,6.5
2019-04-02T01:06:10.554Z,6.5
2019-04-02T01:07:10.527Z,6.51
2019-04-02T01:08:10.462Z,6.52
2019-04-02T01:09:11.580Z,6.51
2019-04-02T01:10:10.503Z,6.5
2019-04-02T01:11:10.517Z,6.5
2019-04-02T01:12:10.564Z,6.51
2019-04-02T01:13:10.493Z,6.5
2019-04-02T01:14:10.545Z,6.52
2019-04-02T01:15:10.480Z,6.49
2019-04-02T01:16:10.765Z,6.48
2019-04-02T01:17:12.004Z,6.49
2019-04-02T01:18:10.910Z,6.5
2019-04-02T01:19:10.536Z,6.49
2019-04-02T01:20:10.601Z,6.49
2019-04-02T01:21:10.477Z,6.48
2019-04-02T01:22:10.501Z,6.48
2019-04-02T01:23:10.472Z,6.49
2019-04-02T01:24:10.449Z,6.49
2019-04-02T01:25:10.444Z,6.49
2019-04-02T01:26:10.450Z,6.49
2019-04-02T01:27:10.483Z,6.48
2019-04-02T01:28:10.490Z,6.49
2019-04-02T01:29:11.922Z,6.48
2019-04-02T01:30:10.529Z,6.47
2019-04-02T01:31:10.424Z,6.48
2019-04-02T01:32:10.487Z,6.46
2019-04-02T01:33:11.801Z,6.46
2019-04-02T01:34:10.585Z,6.48
2019-04-02T01:35:10.471Z,6.48
2019-04-02T01:36:10.464Z,6.47
2019-04-02T01:37:10.503Z,6.45
2019-04-02T01:38:10.645Z,6.46
2019-04-02T01:39:10.419Z,6.46
2019-04-02T01:40:10.442Z,6.46
2019-04-02T01:41:10.492Z,6.46
2019-04-02T01:42:10.409Z,6.48
2019-04-02T01:43:10.558Z,6.45
2019-04-02T01:44:10.448Z,6.46
2019-04-02T01:45:10.451Z,6.45
2019-04-02T01:46:10.483Z,6.44
2019-04-02T01:47:10.411Z,6.46
2019-04-02T01:48:10.413Z,6.44
2019-04-02T01:49:11.579Z,6.46
2019-04-02T01:50:10.420Z,6.45
2019-04-02T01:51:10.534Z,6.45
2019-04-02T01:52:10.475Z,6.43
2019-04-02T01:53:10.430Z,6.43
2019-04-02T01:54:10.501Z,6.46
2019-04-02T01:55:11.762Z,6.4
2019-04-02T01:56:10.435Z,6.42
2019-04-02T01:57:10.408Z,6.44
2019-04-02T01:58:10.453Z,6.42
2019-04-02T01:59:10.505Z,6.42
2019-04-02T02:00:10.507Z,6.43
2019-04-02T02:01:10.443Z,6.42
2019-04-02T02:02:10.443Z,6.44
2019-04-02T02:03:10.474Z,6.43
2019-04-02T02:04:10.457Z,6.43
2019-04-02T02:05:10.421Z,6.44
2019-04-02T02:06:12.579Z,6.44
2019-04-02T02:07:11.131Z,6.44
2019-04-02T02:08:10.419Z,6.43
2019-04-02T02:09:10.430Z,6.43
2019-04-02T02:10:10.441Z,6.43
2019-04-02T02:11:10.401Z,6.42
2019-04-02T02:12:10.489Z,6.43
2019-04-02T02:13:10.385Z,6.44
2019-04-02T02:14:10.386Z,6.43
2019-04-02T02:15:10.404Z,6.41
2019-04-02T02:16:10.420Z,6.42
2019-04-02T02:17:10.432Z,6.41
2019-04-02T02:18:10.411Z,6.43
2019-04-02T02:19:10.364Z,6.41
2019-04-02T02:20:10.452Z,6.41
2019-04-02T02:21:10.548Z,6.38
2019-04-02T02:22:10.675Z,6.41
2019-04-02T02:23:11.990Z,6.41
2019-04-02T02:24:10.412Z,6.4
2019-04-02T02:25:10.403Z,6.41
2019-04-02T02:26:10.419Z,6.4
2019-04-02T02:27:10.400Z,6.4
2019-04-02T02:28:10.430Z,6.39
2019-04-02T02:29:10.426Z,6.39
2019-04-02T02:30:10.419Z,6.41
2019-04-02T02:31:10.512Z,6.4
2019-04-02T02:32:10.431Z,6.43
2019-04-02T02:33:10.556Z,6.42
2019-04-02T02:34:10.515Z,6.43
2019-04-02T02:35:10.539Z,6.43
2019-04-02T02:36:11.031Z,6.41
2019-04-02T02:37:11.599Z,6.41
2019-04-02T02:38:12.072Z,6.42
2019-04-02T02:39:12.401Z,6.4
2019-04-02T02:40:11.673Z,6.4
2019-04-02T02:41:12.492Z,6.43
2019-04-02T02:42:13.540Z,6.41
2019-04-02T02:43:13.572Z,6.4
2019-04-02T02:44:13.860Z,6.39
2019-04-02T02:45:10.349Z,6.41
2019-04-02T02:46:10.348Z,6.4
2019-04-02T02:47:10.418Z,6.41
2019-04-02T02:48:10.401Z,6.41
2019-04-02T02:49:10.446Z,6.4
2019-04-02T02:50:10.407Z,6.39
2019-04-02T02:51:10.401Z,6.4
2019-04-02T02:52:10.700Z,6.38
2019-04-02T02:53:10.432Z,6.4
2019-04-02T02:54:10.374Z,6.4
2019-04-02T02:55:10.380Z,6.38
2019-04-02T02:56:10.455Z,6.38
2019-04-02T02:57:10.560Z,6.38
2019-04-02T02:58:10.379Z,6.38
2019-04-02T02:59:10.332Z,6.38
2019-04-02T03:00:10.720Z,6.39
2019-04-02T03:01:10.416Z,6.39
2019-04-02T03:02:10.456Z,6.39
2019-04-02T03:03:10.481Z,6.37
2019-04-02T03:04:11.669Z,6.38
2019-04-02T03:05:10.810Z,6.39
2019-04-02T03:06:10.374Z,6.39
2019-04-02T03:07:10.426Z,6.38
2019-04-02T03:08:10.332Z,6.39
2019-04-02T03:09:10.361Z,6.39
2019-04-02T03:10:12.839Z,6.39
2019-04-02T03:11:10.311Z,6.37
2019-04-02T03:12:11.395Z,6.38
2019-04-02T03:13:10.404Z,6.37
2019-04-02T03:14:10.510Z,6.38
2019-04-02T03:15:10.553Z,6.37
2019-04-02T03:16:12.255Z,6.36
2019-04-02T03:17:13.209Z,6.34
2019-04-02T03:18:13.647Z,6.33
2019-04-02T03:19:14.869Z,6.34
2019-04-02T03:20:10.449Z,6.34
2019-04-02T03:21:10.374Z,6.35
2019-04-02T03:22:10.512Z,6.33
2019-04-02T03:23:10.363Z,6.35
2019-04-02T03:24:10.352Z,6.36
2019-04-02T03:25:10.381Z,6.35
2019-04-02T03:26:10.313Z,6.33
2019-04-02T03:27:10.865Z,6.34
2019-04-02T03:28:10.345Z,6.32
2019-04-02T03:29:10.393Z,6.34
2019-04-02T03:30:10.403Z,6.34
2019-04-02T03:31:10.336Z,6.33
2019-04-02T03:32:12.138Z,6.31
2019-04-02T03:33:10.426Z,6.33
2019-04-02T03:34:12.481Z,6.34
2019-04-02T03:35:10.437Z,6.33
2019-04-02T03:36:10.315Z,6.32
2019-04-02T03:37:10.325Z,6.33
2019-04-02T03:38:10.317Z,6.36
2019-04-02T03:39:10.314Z,6.33
2019-04-02T03:40:10.398Z,6.33
2019-04-02T03:41:11.173Z,6.35
2019-04-02T03:42:11.694Z,6.34
2019-04-02T03:43:12.677Z,6.31
2019-04-02T03:44:14.120Z,6.34
2019-04-02T03:45:10.267Z,6.35
2019-04-02T03:46:13.687Z,6.34
2019-04-02T03:47:10.347Z,6.35
2019-04-02T03:48:10.411Z,6.36
2019-04-02T03:49:15.580Z,6.34
2019-04-02T03:50:10.392Z,6.32
2019-04-02T03:51:10.361Z,6.35
2019-04-02T03:52:10.386Z,6.32
2019-04-02T03:53:10.315Z,6.32
2019-04-02T03:54:10.364Z,6.34
2019-04-02T03:55:10.384Z,6.32
2019-04-02T03:56:10.384Z,6.32
2019-04-02T03:57:10.362Z,6.31
2019-04-02T03:58:10.302Z,6.32
2019-04-02T03:59:10.296Z,6.31
2019-04-02T04:00:10.431Z,6.32
2019-04-02T04:01:10.245Z,6.32
2019-04-02T04:02:10.242Z,6.3
2019-04-02T04:03:10.392Z,6.33
2019-04-02T04:04:10.300Z,6.32
2019-04-02T04:05:10.455Z,6.3
2019-04-02T04:06:11.242Z,6.31
2019-04-02T04:07:10.280Z,6.32
2019-04-02T04:08:11.347Z,6.29
2019-04-02T04:09:10.878Z,6.28
2019-04-02T04:10:11.485Z,6.29
2019-04-02T04:11:12.648Z,6.29
2019-04-02T04:12:13.190Z,6.33
2019-04-02T04:13:13.822Z,6.32
2019-04-02T04:14:10.287Z,6.3
2019-04-02T04:15:10.345Z,6.29
2019-04-02T04:16:12.215Z,6.31
2019-04-02T04:17:10.284Z,6.29
2019-04-02T04:18:10.318Z,6.29
2019-04-02T04:19:10.434Z,6.27
2019-04-02T04:20:10.265Z,6.31
2019-04-02T04:21:10.326Z,6.29
2019-04-02T04:22:11.138Z,6.27
2019-04-02T04:23:10.340Z,6.29
2019-04-02T04:24:10.306Z,6.28
2019-04-02T04:25:10.285Z,6.27
2019-04-02T04:26:10.272Z,6.28
2019-04-02T04:27:10.383Z,6.29
2019-04-02T04:28:10.648Z,6.28
2019-04-02T04:29:10.566Z,6.28
2019-04-02T04:30:10.274Z,6.27
2019-04-02T04:31:10.262Z,6.28
2019-04-02T04:32:10.660Z,6.26
2019-04-02T04:33:10.392Z,6.25
2019-04-02T04:34:13.247Z,6.25
2019-04-02T04:35:11.147Z,6.26
2019-04-02T04:36:11.997Z,6.27
2019-04-02T04:37:12.031Z,6.27
2019-04-02T04:38:12.742Z,6.27
2019-04-02T04:39:21.474Z,6.27
2019-04-02T04:40:10.421Z,6.28
2019-04-02T04:41:10.198Z,6.27
2019-04-02T04:42:10.201Z,6.23
2019-04-02T04:43:10.396Z,6.25
2019-04-02T04:44:10.278Z,6.25
2019-04-02T04:45:10.255Z,6.25
2019-04-02T04:46:10.267Z,6.24
2019-04-02T04:47:10.244Z,6.26
2019-04-02T04:48:10.214Z,6.26
2019-04-02T04:49:10.324Z,6.27
2019-04-02T04:50:10.343Z,6.26
2019-04-02T04:51:10.241Z,6.23
2019-04-02T04:52:10.210Z,6.23
2019-04-02T04:53:10.246Z,6.26
2019-04-02T04:54:10.677Z,6.23
2019-04-02T04:55:10.723Z,6.24
2019-04-02T04:56:10.218Z,6.25
2019-04-02T04:57:10.365Z,6.23
2019-04-02T04:58:10.487Z,6.24
2019-04-02T04:59:10.276Z,6.24
2019-04-02T05:00:10.215Z,6.22
2019-04-02T05:01:10.205Z,6.21
2019-04-02T05:02:10.363Z,6.21
2019-04-02T05:03:10.207Z,6.22
2019-04-02T05:04:10.233Z,6.21
2019-04-02T05:05:10.210Z,6.23
2019-04-02T05:06:10.266Z,6.22
2019-04-02T05:07:10.208Z,6.23
2019-04-02T05:08:10.240Z,6.22
2019-04-02T05:09:13.336Z,6.2
2019-04-02T05:10:10.207Z,6.2
2019-04-02T05:11:10.275Z,6.21
2019-04-02T05:12:10.176Z,6.23
2019-04-02T05:13:10.164Z,6.21
2019-04-02T05:14:17.442Z,6.24
2019-04-02T05:15:10.202Z,6.2
2019-04-02T05:16:10.646Z,6.18
2019-04-02T05:17:10.162Z,6.21
2019-04-02T05:18:10.149Z,6.22
2019-04-02T05:19:10.605Z,6.19
2019-04-02T05:20:10.210Z,6.18
2019-04-02T05:21:10.224Z,6.21
2019-04-02T05:22:10.180Z,6.2
2019-04-02T05:23:12.230Z,6.18
2019-04-02T05:24:13.367Z,6.21
2019-04-02T05:25:12.439Z,6.21
2019-04-02T05:26:11.109Z,6.22
2019-04-02T05:27:11.180Z,6.22
2019-04-02T05:28:10.193Z,6.23
2019-04-02T05:29:10.196Z,6.2
2019-04-02T05:30:10.130Z,6.24
2019-04-02T05:31:10.134Z,6.2
2019-04-02T05:32:10.125Z,6.22
2019-04-02T05:33:10.155Z,6.25
2019-04-02T05:34:10.196Z,6.23
2019-04-02T05:35:10.155Z,6.24
2019-04-02T05:36:10.114Z,6.25
2019-04-02T05:37:10.546Z,6.21
2019-04-02T05:38:10.445Z,6.2
2019-04-02T05:39:10.178Z,6.2
2019-04-02T05:40:10.154Z,6.19
2019-04-02T05:41:10.185Z,6.2
2019-04-02T05:42:12.931Z,6.23
2019-04-02T05:43:10.943Z,6.21
2019-04-02T05:44:10.288Z,6.2
2019-04-02T05:45:10.373Z,6.21
2019-04-02T05:46:10.816Z,6.2
2019-04-02T05:47:10.168Z,6.23
2019-04-02T05:48:10.136Z,6.21
2019-04-02T05:49:10.180Z,6.22
2019-04-02T05:50:10.122Z,6.23
2019-04-02T05:51:10.254Z,6.23
2019-04-02T05:52:10.093Z,6.23
2019-04-02T05:53:10.186Z,6.21
2019-04-02T05:54:11.310Z,6.23
2019-04-02T05:55:10.151Z,6.23
2019-04-02T05:56:10.203Z,6.22
2019-04-02T05:57:10.353Z,6.21
2019-04-02T05:58:10.168Z,6.23
2019-04-02T05:59:10.729Z,6.25
2019-04-02T06:00:10.120Z,6.25
2019-04-02T06:01:10.280Z,6.2
2019-04-02T06:02:10.158Z,6.25
2019-04-02T06:03:11.979Z,6.22
2019-04-02T06:04:11.894Z,6.25
2019-04-02T06:05:10.284Z,6.2
2019-04-02T06:06:10.128Z,6.23
2019-04-02T06:07:10.155Z,6.24
2019-04-02T06:08:10.094Z,6.21
2019-04-02T06:09:10.105Z,6.2
2019-04-02T06:10:10.118Z,6.22
2019-04-02T06:11:10.172Z,6.21
2019-04-02T06:12:10.106Z,6.21
2019-04-02T06:13:10.079Z,6.24
2019-04-02T06:14:10.154Z,6.23
2019-04-02T06:15:10.104Z,6.23
2019-04-02T06:16:10.124Z,6.25
2019-04-02T06:17:10.147Z,6.25
2019-04-02T06:18:10.178Z,6.25
2019-04-02T06:19:10.078Z,6.25
2019-04-02T06:20:10.308Z,6.24
2019-04-02T06:21:11.907Z,6.25
2019-04-02T06:22:10.043Z,6.25
2019-04-02T06:23:15.771Z,6.25
2019-04-02T06:24:10.172Z,6.26
2019-04-02T06:25:10.131Z,6.22
2019-04-02T06:26:10.089Z,6.23
2019-04-02T06:27:10.154Z,6.23
2019-04-02T06:28:10.038Z,6.22
2019-04-02T06:29:10.067Z,6.23
2019-04-02T06:30:10.084Z,6.25
2019-04-02T06:31:10.085Z,6.24
2019-04-02T06:32:10.093Z,6.23
2019-04-02T06:33:10.178Z,6.24
2019-04-02T06:34:10.466Z,6.26
2019-04-02T06:35:10.094Z,6.27
2019-04-02T06:36:10.027Z,6.26
2019-04-02T06:37:10.087Z,6.24
2019-04-02T06:38:10.072Z,6.24
2019-04-02T06:39:10.038Z,6.27
2019-04-02T06:40:10.071Z,6.27
2019-04-02T06:41:10.096Z,6.28
2019-04-02T06:42:13.755Z,6.27
2019-04-02T06:43:10.169Z,6.27
2019-04-02T06:44:10.072Z,6.26
2019-04-02T06:45:10.054Z,6.28
2019-04-02T06:46:10.071Z,6.3
2019-04-02T06:47:10.075Z,6.3
2019-04-02T06:48:10.100Z,6.28
2019-04-02T06:49:10.079Z,6.3
2019-04-02T06:50:10.429Z,6.28
2019-04-02T06:51:10.075Z,6.28
2019-04-02T06:52:10.117Z,6.28
2019-04-02T06:53:10.069Z,6.3
2019-04-02T06:54:10.054Z,6.3
2019-04-02T06:55:10.191Z,6.3
2019-04-02T06:56:10.102Z,6.29
2019-04-02T06:57:10.038Z,6.3
2019-04-02T06:58:10.087Z,6.3
2019-04-02T06:59:10.055Z,6.32
2019-04-02T07:00:13.413Z,6.31
2019-04-02T07:01:33.122Z,6.33
2019-04-02T07:02:10.061Z,6.35
2019-04-02T07:03:10.030Z,6.32
2019-04-02T07:04:10.091Z,6.35
2019-04-02T07:05:10.025Z,6.33
2019-04-02T07:06:10.004Z,6.34
2019-04-02T07:07:12.502Z,6.34
2019-04-02T07:08:15.818Z,6.35
2019-04-02T07:09:10.485Z,6.37
2019-04-02T07:10:10.130Z,6.37
2019-04-02T07:11:10.022Z,6.38
2019-04-02T07:12:10.107Z,6.38
2019-04-02T07:13:10.072Z,6.41
2019-04-02T07:14:10.000Z,6.4
2019-04-02T07:15:10.092Z,6.39
2019-04-02T07:16:10.065Z,6.37
2019-04-02T07:17:10.053Z,6.37
2019-04-02T07:18:10.007Z,6.44
2019-04-02T07:19:09.992Z,6.42
2019-04-02T07:20:10.047Z,6.44
2019-04-02T07:21:09.962Z,6.43
2019-04-02T07:22:10.006Z,6.45
2019-04-02T07:23:10.019Z,6.44
2019-04-02T07:24:09.985Z,6.45
2019-04-02T07:25:09.984Z,6.45
2019-04-02T07:26:10.185Z,6.43
2019-04-02T07:27:12.064Z,6.46
2019-04-02T07:28:13.084Z,6.44
2019-04-02T07:29:10.046Z,6.43
2019-04-02T07:30:09.980Z,6.41
2019-04-02T07:31:10.082Z,6.47
2019-04-02T07:32:10.009Z,6.48
2019-04-02T07:33:10.004Z,6.45
2019-04-02T07:34:10.051Z,6.45
2019-04-02T07:35:10.126Z,6.46
2019-04-02T07:36:10.132Z,6.44
2019-04-02T07:37:10.005Z,6.47
2019-04-02T07:38:10.145Z,6.49
2019-04-02T07:39:09.989Z,6.51
2019-04-02T07:40:10.032Z,6.54
2019-04-02T07:41:12.536Z,6.49
2019-04-02T07:42:09.982Z,6.54
2019-04-02T07:43:10.018Z,6.53
2019-04-02T07:44:10.093Z,6.58
2019-04-02T07:45:11.095Z,6.61
2019-04-02T07:46:10.045Z,6.61
2019-04-02T07:47:10.415Z,6.61
2019-04-02T07:48:10.609Z,6.63
2019-04-02T07:49:10.000Z,6.6
2019-04-02T07:50:09.986Z,6.6
2019-04-02T07:51:10.041Z,6.63
2019-04-02T07:52:09.970Z,6.63
2019-04-02T07:53:09.966Z,6.64
2019-04-02T07:54:11.034Z,6.64
2019-04-02T07:55:09.970Z,6.64
2019-04-02T07:56:09.987Z,6.66
2019-04-02T07:57:09.995Z,6.64
2019-04-02T07:58:09.983Z,6.66
2019-04-02T07:59:11.730Z,6.68
2019-04-02T08:00:11.027Z,6.65
2019-04-02T08:01:09.925Z,6.63
2019-04-02T08:02:09.992Z,6.66
2019-04-02T08:03:09.954Z,6.67
2019-04-02T08:04:10.025Z,6.68
2019-04-02T08:05:09.948Z,6.7
2019-04-02T08:06:09.977Z,6.72
2019-04-02T08:07:09.924Z,6.69
2019-04-02T08:08:09.964Z,6.72
2019-04-02T08:09:10.832Z,6.75
2019-04-02T08:10:10.603Z,6.75
2019-04-02T08:11:10.081Z,6.73
2019-04-02T08:12:09.935Z,6.78
2019-04-02T08:13:09.916Z,6.8
2019-04-02T08:14:10.063Z,6.79
2019-04-02T08:15:09.919Z,6.81
2019-04-02T08:16:10.023Z,6.84
2019-04-02T08:17:11.145Z,6.82
2019-04-02T08:18:09.976Z,6.77
2019-04-02T08:19:10.038Z,6.82
2019-04-02T08:20:10.904Z,6.86
2019-04-02T08:21:09.953Z,6.83
2019-04-02T08:22:09.975Z,6.85
2019-04-02T08:23:09.970Z,6.86
2019-04-02T08:24:09.978Z,6.9
2019-04-02T08:25:10.030Z,6.87
2019-04-02T08:26:09.909Z,6.92
2019-04-02T08:27:10.041Z,6.95
2019-04-02T08:28:13.330Z,6.97
2019-04-02T08:29:09.913Z,6.97
2019-04-02T08:30:09.926Z,6.94
2019-04-02T08:31:10.690Z,6.97
2019-04-02T08:32:09.900Z,6.96
2019-04-02T08:33:09.968Z,6.99
2019-04-02T08:34:12.409Z,6.97
2019-04-02T08:35:09.954Z,6.98
2019-04-02T08:36:09.979Z,6.94
2019-04-02T08:37:09.918Z,7.01
2019-04-02T08:38:10.007Z,6.97
2019-04-02T08:39:09.972Z,7.03
2019-04-02T08:40:09.954Z,7.03
2019-04-02T08:41:09.942Z,7.09
2019-04-02T08:42:09.907Z,7.03
2019-04-02T08:43:09.901Z,7.07
2019-04-02T08:44:09.960Z,7.13
2019-04-02T08:45:09.920Z,7.09
2019-04-02T08:46:09.944Z,7.18
2019-04-02T08:47:09.840Z,7.1
2019-04-02T08:48:09.947Z,7.12
2019-04-02T08:49:09.923Z,7.17
2019-04-02T08:50:09.877Z,7.12
2019-04-02T08:51:09.973Z,7.11
2019-04-02T08:52:10.211Z,7.21
2019-04-02T08:53:10.861Z,7.18
2019-04-02T08:54:09.894Z,7.28
2019-04-02T08:55:09.892Z,7.24
2019-04-02T08:56:09.900Z,7.24
2019-04-02T08:57:09.849Z,7.24
2019-04-02T08:58:09.900Z,7.17
2019-04-02T08:59:09.863Z,7.27
2019-04-02T09:00:09.868Z,7.26
2019-04-02T09:01:09.870Z,7.23
2019-04-02T09:02:12.207Z,7.23
2019-04-02T09:03:09.926Z,7.28
2019-04-02T09:04:09.983Z,7.25
2019-04-02T09:05:09.857Z,7.23
2019-04-02T09:06:12.387Z,7.28
2019-04-02T09:07:09.891Z,7.28
2019-04-02T09:08:09.872Z,7.2
2019-04-02T09:09:09.939Z,7.27
2019-04-02T09:10:09.862Z,7.26
2019-04-02T09:11:09.868Z,7.24
2019-04-02T09:12:09.893Z,7.29
2019-04-02T09:13:12.342Z,7.32
2019-04-02T09:14:10.298Z,7.3
2019-04-02T09:15:09.860Z,7.28
2019-04-02T09:16:09.827Z,7.32
2019-04-02T09:17:09.847Z,7.39
2019-04-02T09:18:09.923Z,7.46
2019-04-02T09:19:09.910Z,7.35
2019-04-02T09:20:09.850Z,7.35
2019-04-02T09:21:09.837Z,7.37
2019-04-02T09:22:09.856Z,7.35
2019-04-02T09:23:09.870Z,7.43
2019-04-02T09:24:09.858Z,7.45
2019-04-02T09:25:09.907Z,7.44
2019-04-02T09:26:19.074Z,7.41
2019-04-02T09:27:09.824Z,7.49
2019-04-02T09:28:09.901Z,7.44
2019-04-02T09:29:12.864Z,7.48
2019-04-02T09:30:09.881Z,7.45
2019-04-02T09:31:12.138Z,7.52
2019-04-02T09:32:09.809Z,7.51
2019-04-02T09:33:09.888Z,7.46
2019-04-02T09:34:12.542Z,7.39
2019-04-02T09:35:10.225Z,7.49
2019-04-02T09:36:09.970Z,7.51
2019-04-02T09:37:09.825Z,7.51
2019-04-02T09:38:09.888Z,7.55
2019-04-02T09:39:09.838Z,7.5
2019-04-02T09:40:10.015Z,7.51
2019-04-02T09:41:09.862Z,7.57
2019-04-02T09:42:09.821Z,7.54
2019-04-02T09:43:09.860Z,7.54
2019-04-02T09:44:12.084Z,7.61
2019-04-02T09:45:10.415Z,7.59
2019-04-02T09:46:09.835Z,7.6
2019-04-02T09:47:09.801Z,7.64
2019-04-02T09:48:09.819Z,7.68
2019-04-02T09:49:12.759Z,7.66
2019-04-02T09:50:09.778Z,7.7
2019-04-02T09:51:09.833Z,7.65
2019-04-02T09:52:09.779Z,7.63
2019-04-02T09:53:09.785Z,7.59
2019-04-02T09:54:09.805Z,7.65
2019-04-02T09:55:09.781Z,7.69
2019-04-02T09:56:09.832Z,7.74
2019-04-02T09:57:09.808Z,7.7
2019-04-02T09:58:09.810Z,7.66
2019-04-02T09:59:11.153Z,7.67
2019-04-02T10:00:09.922Z,7.75
2019-04-02T10:01:09.783Z,7.74
2019-04-02T10:02:09.762Z,7.74
2019-04-02T10:03:09.877Z,7.73
2019-04-02T10:04:09.786Z,7.73
2019-04-02T10:05:09.808Z,7.69
2019-04-02T10:06:09.834Z,7.68
2019-04-02T10:07:09.782Z,7.78
2019-04-02T10:08:09.776Z,7.79
2019-04-02T10:09:09.852Z,7.82
2019-04-02T10:10:09.875Z,7.9
2019-04-02T10:11:09.770Z,7.89
2019-04-02T10:12:09.762Z,7.87
2019-04-02T10:13:09.831Z,7.81
2019-04-02T10:14:09.746Z,7.84
2019-04-02T10:15:09.761Z,7.87
2019-04-02T10:16:11.914Z,7.87
2019-04-02T10:17:09.781Z,7.83
2019-04-02T10:18:10.391Z,7.88
2019-04-02T10:19:09.774Z,7.9
2019-04-02T10:20:09.791Z,7.83
2019-04-02T10:21:09.799Z,7.82
2019-04-02T10:22:09.803Z,7.86
2019-04-02T10:23:09.778Z,7.82
2019-04-02T10:24:09.846Z,7.76
2019-04-02T10:25:09.816Z,7.94
2019-04-02T10:26:09.760Z,7.89
2019-04-02T10:27:09.755Z,7.92
2019-04-02T10:28:09.750Z,7.9
2019-04-02T10:29:09.749Z,7.85
2019-04-02T10:30:09.725Z,8
2019-04-02T10:31:09.767Z,7.94
2019-04-02T10:32:09.886Z,8.08
2019-04-02T10:33:09.806Z,7.94
2019-04-02T10:34:09.809Z,7.96
2019-04-02T10:35:09.788Z,7.93
2019-04-02T10:36:09.717Z,7.99
2019-04-02T10:37:09.765Z,8.01
2019-04-02T10:38:09.730Z,7.98
2019-04-02T10:39:09.728Z,7.84
2019-04-02T10:40:10.012Z,8.09
2019-04-02T10:41:09.752Z,7.99
2019-04-02T10:42:09.810Z,7.98
2019-04-02T10:43:09.789Z,7.95
2019-04-02T10:44:09.726Z,7.97
2019-04-02T10:45:09.739Z,8.03
2019-04-02T10:46:09.712Z,8.01
2019-04-02T10:47:09.693Z,7.94
2019-04-02T10:48:09.955Z,7.95
2019-04-02T10:49:12.264Z,7.86
2019-04-02T10:50:09.769Z,7.87
2019-04-02T10:51:09.743Z,7.93
2019-04-02T10:52:09.750Z,8.04
2019-04-02T10:53:09.711Z,8.14
2019-04-02T10:54:09.811Z,8.12
2019-04-02T10:55:09.761Z,8.12
2019-04-02T10:56:09.733Z,8.06
2019-04-02T10:57:09.741Z,7.88
2019-04-02T10:58:12.414Z,7.93
2019-04-02T10:59:13.150Z,7.91
2019-04-02T11:00:09.774Z,7.79
2019-04-02T11:01:11.796Z,7.93
2019-04-02T11:02:09.715Z,7.86
2019-04-02T11:03:09.793Z,7.85
2019-04-02T11:04:09.703Z,7.79
2019-04-02T11:05:09.752Z,7.67
2019-04-02T11:06:09.716Z,7.56
2019-04-02T11:07:14.420Z,7.72
2019-04-02T11:08:09.789Z,7.8
2019-04-02T11:09:09.829Z,7.84
2019-04-02T11:10:09.852Z,7.82
2019-04-02T11:11:09.760Z,7.68
2019-04-02T11:12:09.798Z,7.75
2019-04-02T11:13:12.429Z,7.83
2019-04-02T11:14:13.463Z,7.9
2019-04-02T11:15:09.702Z,7.92
2019-04-02T11:16:09.939Z,7.98
2019-04-02T11:17:09.720Z,7.85
2019-04-02T11:18:09.686Z,7.73
2019-04-02T11:19:09.798Z,7.71
2019-04-02T11:20:09.683Z,7.75
2019-04-02T11:21:09.815Z,7.8
2019-04-02T11:22:09.941Z,7.72
2019-04-02T11:23:10.008Z,7.86
2019-04-02T11:24:09.756Z,7.87
2019-04-02T11:25:09.766Z,7.98
2019-04-02T11:26:09.765Z,7.89
2019-04-02T11:27:09.678Z,7.88
2019-04-02T11:28:09.661Z,7.67
2019-04-02T11:29:09.666Z,7.84
2019-04-02T11:30:09.709Z,7.87
2019-04-02T11:31:09.683Z,7.88
2019-04-02T11:32:09.764Z,7.94
2019-04-02T11:33:09.767Z,7.97
2019-04-02T11:34:09.909Z,8.13
2019-04-02T11:35:09.674Z,8.04
2019-04-02T11:36:09.881Z,8.04
2019-04-02T11:37:15.518Z,7.96
2019-04-02T11:38:09.692Z,8.1
2019-04-02T11:39:09.734Z,8.16
2019-04-02T11:40:09.737Z,8.07
2019-04-02T11:41:09.679Z,8.12
2019-04-02T11:42:09.833Z,7.96
2019-04-02T11:43:09.772Z,7.9
2019-04-02T11:44:10.289Z,7.74
2019-04-02T11:45:09.896Z,7.66
2019-04-02T11:46:09.677Z,7.75
2019-04-02T11:47:09.685Z,7.77
2019-04-02T11:48:09.673Z,7.69
2019-04-02T11:49:09.648Z,7.82
2019-04-02T11:50:09.682Z,7.83
2019-04-02T11:51:10.351Z,7.86
2019-04-02T11:52:10.057Z,7.66
2019-04-02T11:53:10.006Z,7.7
2019-04-02T11:54:24.144Z,7.85
2019-04-02T11:55:09.649Z,7.7
2019-04-02T11:56:09.661Z,7.76
2019-04-02T11:57:10.209Z,7.87
2019-04-02T11:58:17.655Z,7.64
2019-04-02T11:59:09.730Z,7.66
2019-04-02T12:00:09.665Z,7.82
2019-04-02T12:01:09.649Z,7.66
2019-04-02T12:02:09.766Z,7.7
2019-04-02T12:03:09.630Z,7.61
2019-04-02T12:04:11.760Z,7.61
2019-04-02T12:05:21.715Z,7.99
2019-04-02T12:06:10.019Z,7.76
2019-04-02T12:07:11.311Z,7.66
2019-04-02T12:08:19.414Z,7.5
2019-04-02T12:10:09.609Z,6.96
2019-04-02T12:11:09.610Z,7.17
2019-04-02T12:12:09.659Z,7.21
2019-04-02T12:13:09.707Z,6.78
2019-04-02T12:14:09.630Z,6.91
2019-04-02T12:15:09.658Z,7.28
2019-04-02T12:16:09.612Z,7.32
2019-04-02T12:17:09.677Z,7.38
2019-04-02T12:18:09.743Z,7.52
2019-04-02T12:19:14.247Z,7.34
2019-04-02T12:20:09.628Z,7.26
2019-04-02T12:21:12.415Z,6.84
2019-04-02T12:22:12.379Z,6.9
2019-04-02T12:23:09.601Z,6.8
2019-04-02T12:24:12.597Z,6.64
2019-04-02T12:25:11.606Z,6.93
2019-04-02T12:26:09.752Z,6.64
2019-04-02T12:27:09.622Z,6.83
2019-04-02T12:28:10.761Z,7
2019-04-02T12:29:09.617Z,6.98
2019-04-02T12:30:09.615Z,6.97
2019-04-02T12:31:09.601Z,6.84
2019-04-02T12:32:09.588Z,6.78
2019-04-02T12:33:09.627Z,6.58
2019-04-02T12:34:11.408Z,6.72
2019-04-02T12:35:09.615Z,6.55
2019-04-02T12:36:12.428Z,6.88
2019-04-02T12:37:12.362Z,6.87
2019-04-02T12:38:12.584Z,6.53
2019-04-02T12:39:12.827Z,6.78
2019-04-02T12:40:12.029Z,6.68
2019-04-02T12:41:10.357Z,6.89
2019-04-02T12:42:11.335Z,6.78
2019-04-02T12:43:09.608Z,7.01
2019-04-02T12:44:09.584Z,6.7
2019-04-02T12:45:09.605Z,6.88
2019-04-02T12:46:09.614Z,6.78
2019-04-02T12:47:09.567Z,6.41
2019-04-02T12:48:09.577Z,6.34
2019-04-02T12:49:09.698Z,5.98
2019-04-02T12:50:09.655Z,6.1
2019-04-02T12:51:10.793Z,6.04
2019-04-02T12:52:11.586Z,5.77
2019-04-02T12:53:09.592Z,5.62
2019-04-02T12:54:09.581Z,5.92
2019-04-02T12:55:09.606Z,5.63
2019-04-02T12:56:09.573Z,5.75
2019-04-02T12:57:09.604Z,5.61
2019-04-02T12:58:09.591Z,5.7
2019-04-02T12:59:10.218Z,5.99
2019-04-02T13:00:09.920Z,5.87
2019-04-02T13:01:09.623Z,5.89
2019-04-02T13:02:11.804Z,5.79
2019-04-02T13:03:09.567Z,5.48
2019-04-02T13:04:09.555Z,5.7
2019-04-02T13:05:09.554Z,5.89
2019-04-02T13:06:09.533Z,5.8
2019-04-02T13:07:09.543Z,5.61
2019-04-02T13:08:09.569Z,5.56
2019-04-02T13:09:09.574Z,5.83
2019-04-02T13:10:10.663Z,5.81
2019-04-02T13:11:09.603Z,6.02
2019-04-02T13:12:09.583Z,5.61
2019-04-02T13:13:09.594Z,5.76
2019-04-02T13:14:09.579Z,5.92
2019-04-02T13:15:09.555Z,5.83
2019-04-02T13:16:09.590Z,5.67
2019-04-02T13:17:13.389Z,5.66
2019-04-02T13:18:09.556Z,6.01
2019-04-02T13:19:09.554Z,5.89
2019-04-02T13:20:09.586Z,5.8
2019-04-02T13:21:09.574Z,5.97
2019-04-02T13:22:12.971Z,5.72